»·PEaware :: N805RJ F70-F70

N805RJ :: F70-F70

FLIGHT INFORMATION

Flight Status: Arrived
Operator: Privately registered:
United States
More flights under this callsign
Pilot: Rickie J. (22768)
Aircraft: CESSNA 172 SKYHAWK
(C172)
More flights by this aircraft type
Origin: F70 French Valley
United States
Destination: F70 French Valley
United States
More flights between these airports :: More routes between these airports
Route: BANDS V372 PSP V137 TRM V64 HEMET
File this flight plan on PilotEdge
Remarks:
Altitude:
(Current/Filed)
11,500ft
Speed:
(Current/Filed)
120kts
Departed: 30-May-20 04:55 PM
Arrived: 30-May-20 05:58 PM
Distance/Time
Traveled:
0nm/1:03
Distance/Time
To Go:
Arrived

Flight Plot

Page will automatically refresh every two minutes.

Flight plan parsing failed; only flown route is shown


Map Options




Map Legend


Flown Route
Filed Route
Departure Airport
Arrival Airport
Navaid (VOR, NDB)
Fix

Horizontal Profiles

Position Reports

Time Latitude Longitude Heading Altitude Ground
Speed
30-May-20 16:25 33.575634 -117.130565 152 1354ft 0kts
30-May-20 16:26 33.575634 -117.130565 152 1354ft 0kts
30-May-20 16:27 33.575634 -117.130565 152 1354ft 0kts
30-May-20 16:28 33.575634 -117.130565 152 1354ft 0kts
30-May-20 16:29 33.575634 -117.130565 152 1354ft 0kts
30-May-20 16:30 33.575634 -117.130565 152 1354ft 0kts
30-May-20 16:31 33.575634 -117.130565 152 1354ft 0kts
30-May-20 16:32 33.575634 -117.130565 152 1354ft 0kts
30-May-20 16:33 33.575634 -117.130565 152 1354ft 0kts
30-May-20 16:34 33.575634 -117.130565 152 1354ft 0kts
30-May-20 16:35 33.575634 -117.130565 152 1354ft 0kts
30-May-20 16:36 33.575634 -117.130565 152 1354ft 0kts
30-May-20 16:37 33.575634 -117.130565 152 1354ft 0kts
30-May-20 16:38 33.575634 -117.130565 152 1354ft 0kts
30-May-20 16:39 33.575634 -117.130565 152 1354ft 0kts
30-May-20 16:41 33.575634 -117.130565 152 1354ft 0kts
30-May-20 16:42 33.575634 -117.130565 152 1354ft 0kts
30-May-20 16:43 33.575634 -117.130565 152 1354ft 0kts
30-May-20 16:44 33.575634 -117.130565 152 1354ft 0kts
30-May-20 16:45 33.575634 -117.130565 152 1354ft 0kts
30-May-20 16:46 33.575634 -117.130565 152 1354ft 0kts
30-May-20 16:47 33.575600 -117.130544 153 1354ft 0kts
30-May-20 16:48 33.575545 -117.129722 105 1354ft 6kts
30-May-20 16:49 33.577601 -117.128413 16 1354ft 13kts
30-May-20 16:50 33.581583 -117.127344 10 1354ft 14kts
30-May-20 16:51 33.582276 -117.126956 93 1354ft 0kts
30-May-20 16:52 33.582275 -117.126956 93 1354ft 0kts
30-May-20 16:53 33.582275 -117.126956 93 1354ft 0kts
30-May-20 16:54 33.582254 -117.126772 101 1354ft 2kts
30-May-20 16:55 33.577134 -117.127696 192 1354ft 76kts
30-May-20 16:56 33.551818 -117.133076 189 2056ft 87kts
30-May-20 16:57 33.531716 -117.128529 109 2908ft 91kts
30-May-20 16:57 33.547413 -117.110724 13 3435ft 116kts
30-May-20 16:59 33.585963 -117.098882 12 4145ft 124kts
30-May-20 17:00 33.619151 -117.086958 22 4755ft 125kts
30-May-20 17:00 33.642951 -117.067813 30 5253ft 122kts
30-May-20 17:01 33.670223 -117.043874 32 5849ft 121kts
30-May-20 17:03 33.701708 -117.016062 32 6551ft 120kts
30-May-20 17:03 33.723761 -116.996562 32 7048ft 119kts
30-May-20 17:04 33.750329 -116.973063 32 7543ft 122kts
30-May-20 17:05 33.777313 -116.949172 34 7945ft 127kts
30-May-20 17:06 33.804422 -116.925150 34 8331ft 128kts
30-May-20 17:07 33.831636 -116.901013 36 8722ft 128kts
30-May-20 17:08 33.859455 -116.876323 37 9123ft 129kts
30-May-20 17:09 33.885490 -116.849335 74 9527ft 124kts
30-May-20 17:10 33.887766 -116.810816 104 9938ft 113kts
30-May-20 17:11 33.886116 -116.771923 105 10281ft 119kts
30-May-20 17:12 33.884275 -116.731320 105 10604ft 121kts
30-May-20 17:13 33.882398 -116.690458 105 10927ft 121kts
30-May-20 17:14 33.880540 -116.649927 106 11251ft 120kts
30-May-20 17:15 33.878634 -116.609363 106 11511ft 125kts
30-May-20 17:16 33.876493 -116.564947 105 11507ft 136kts
30-May-20 17:17 33.874328 -116.518788 105 11507ft 138kts
30-May-20 17:18 33.872099 -116.472030 105 11507ft 139kts
30-May-20 17:19 33.864928 -116.428679 141 11507ft 120kts
30-May-20 17:20 33.842626 -116.400229 147 11508ft 117kts
30-May-20 17:21 33.819047 -116.373007 148 11507ft 117kts
30-May-20 17:22 33.795690 -116.346712 149 11489ft 117kts
30-May-20 17:23 33.771847 -116.320038 149 11450ft 116kts
30-May-20 17:24 33.748756 -116.294269 149 11505ft 113kts
30-May-20 17:25 33.725675 -116.268577 149 11505ft 113kts
30-May-20 17:26 33.702410 -116.242681 149 11505ft 114kts
30-May-20 17:27 33.679289 -116.216963 149 11504ft 113kts
30-May-20 17:28 33.656134 -116.191231 149 11505ft 113kts
30-May-20 17:29 33.632200 -116.169615 193 11499ft 99kts
30-May-20 17:30 33.630237 -116.204826 267 11319ft 128kts
30-May-20 17:31 33.635410 -116.247180 265 11027ft 129kts
30-May-20 17:32 33.639529 -116.289919 265 10731ft 129kts
30-May-20 17:33 33.643418 -116.332823 264 10504ft 125kts
30-May-20 17:34 33.646998 -116.373309 264 10507ft 120kts
30-May-20 17:35 33.650493 -116.413142 264 10545ft 117kts
30-May-20 17:36 33.653942 -116.452989 264 10503ft 122kts
30-May-20 17:37 33.657417 -116.492656 264 10507ft 120kts
30-May-20 17:38 33.660880 -116.532590 264 10505ft 120kts
30-May-20 17:39 33.664347 -116.572451 264 10507ft 120kts
30-May-20 17:40 33.667801 -116.612307 264 10496ft 121kts
30-May-20 17:41 33.671309 -116.652928 265 9893ft 125kts
30-May-20 17:42 33.674858 -116.693956 266 9306ft 119kts
30-May-20 17:43 33.677985 -116.730693 267 8730ft 110kts
30-May-20 17:44 33.680913 -116.765342 268 8162ft 108kts
30-May-20 17:45 33.683806 -116.799797 270 7622ft 118kts
30-May-20 17:46 33.687167 -116.839399 271 7031ft 121kts
30-May-20 17:47 33.688555 -116.878349 252 6446ft 115kts
30-May-20 17:48 33.676455 -116.912434 251 5848ft 109kts
30-May-20 17:49 33.666980 -116.946869 254 5250ft 109kts
30-May-20 17:50 33.657224 -116.981398 255 4648ft 109kts
30-May-20 17:51 33.647190 -117.015968 254 4052ft 110kts
30-May-20 17:52 33.637774 -117.050607 254 3510ft 96kts
30-May-20 17:53 33.629267 -117.078014 255 2896ft 83kts
30-May-20 17:54 33.620873 -117.103278 254 2388ft 79kts
30-May-20 17:55 33.603207 -117.119823 209 1866ft 85kts
30-May-20 17:56 33.583986 -117.125911 193 1406ft 54kts
30-May-20 17:57 33.577384 -117.127805 284 1354ft 5kts
30-May-20 17:58 33.577372 -117.129335 189 1354ft 6kts
30-May-20 17:59 33.575776 -117.129773 222 1354ft 5kts
30-May-20 18:00 33.575232 -117.130682 359 1354ft 4kts
30-May-20 18:01 33.575632 -117.130556 130 1354ft 0kts
30-May-20 18:02 33.575627 -117.130553 155 1354ft 0kts
30-May-20 18:03 33.575627 -117.130553 154 1354ft 0kts
30-May-20 18:04 33.575627 -117.130553 154 1354ft 0kts
30-May-20 18:05 33.575627 -117.130553 154 1354ft 0kts

Navigation Log

Ident Type
Flight plan parsing failed, navigation log unavailable